Time;durP1;ratioP1;P1;durP2;ratioP2;P2;SDS_P1;SDS_P2;PMS_P1;PMS_P2;Temp;Humidity;BMP_temperature;BMP_pressure;BME280_temperature;BME280_humidity;BME280_pressure;Samples;Min_cycle;Max_cycle;Signal;HPM_P1;HPM_P2
2024/02/12 00:02:21;;;;;;;13.15;3.78;;;;;;;;;;4742590;30;20045;-83
2024/02/12 00:04:48;;;;;;;6.22;2.50;;;;;;;;;;4723628;30;20048;-83
2024/02/12 00:07:16;;;;;;;9.18;2.28;;;;;;;;;;4711229;30;20048;-83
2024/02/12 00:09:42;;;;;;;5.18;1.63;;;;;;;;;;4729255;30;20048;-83
2024/02/12 00:12:09;;;;;;;7.05;2.75;;;;;;;;;;4716844;30;20148;-83
2024/02/12 00:14:36;;;;;;;8.52;2.90;;;;;;;;;;4710433;30;20140;-83
2024/02/12 00:17:04;;;;;;;9.07;2.78;;;;;;;;;;4728139;30;20103;-83
2024/02/12 00:19:32;;;;;;;5.07;2.00;;;;;;;;;;4722355;30;20056;-83
2024/02/12 00:22:00;;;;;;;6.20;2.65;;;;;;;;;;4717323;30;20136;-83
2024/02/12 00:24:28;;;;;;;6.32;2.40;;;;;;;;;;4710526;30;20061;-83
2024/02/12 00:26:55;;;;;;;5.90;2.13;;;;;;;;;;4704377;30;20048;-83
2024/02/12 00:29:21;;;;;;;5.03;1.73;;;;;;;;;;4735768;30;20056;-83
2024/02/12 00:31:47;;;;;;;6.82;1.55;;;;;;;;;;4736128;30;20051;-83
2024/02/12 00:34:13;;;;;;;5.30;1.75;;;;;;;;;;4722505;30;20444;-83
2024/02/12 00:36:43;;;;;;;8.25;2.22;;;;;;;;;;4727041;30;20040;-83
2024/02/12 00:39:09;;;;;;;4.22;1.50;;;;;;;;;;4716489;30;20048;-83
2024/02/12 00:41:36;;;;;;;5.88;2.80;;;;;;;;;;4732830;30;20055;-83
2024/02/12 00:44:03;;;;;;;6.40;2.15;;;;;;;;;;4726080;30;20060;-83
2024/02/12 00:46:30;;;;;;;4.78;2.05;;;;;;;;;;4736668;30;20044;-83
2024/02/12 00:48:57;;;;;;;7.05;2.72;;;;;;;;;;4749107;30;20044;-83
2024/02/12 00:51:23;;;;;;;4.40;1.38;;;;;;;;;;4732500;30;20132;-83
2024/02/12 00:53:49;;;;;;;7.57;2.15;;;;;;;;;;4731397;30;20044;-83
2024/02/12 00:56:15;;;;;;;8.55;3.08;;;;;;;;;;4736717;30;20102;-82
2024/02/12 00:58:42;;;;;;;4.38;1.77;;;;;;;;;;4734771;30;22139;-83
2024/02/12 01:01:10;;;;;;;7.82;3.05;;;;;;;;;;4741356;30;20052;-82
2024/02/12 01:03:36;;;;;;;9.80;2.53;;;;;;;;;;4728470;30;20052;-83
2024/02/12 01:06:02;;;;;;;7.40;2.95;;;;;;;;;;4726223;30;20131;-83
2024/02/12 01:08:28;;;;;;;9.65;3.65;;;;;;;;;;4736001;30;20744;-83
2024/02/12 01:10:54;;;;;;;6.18;2.28;;;;;;;;;;4732807;30;20723;-83
2024/02/12 01:13:21;;;;;;;7.20;2.67;;;;;;;;;;4751612;30;20052;-83
2024/02/12 01:15:49;;;;;;;5.70;1.17;;;;;;;;;;4731565;30;20106;-83
2024/02/12 01:18:15;;;;;;;2.83;1.02;;;;;;;;;;4734724;30;20056;-83
2024/02/12 01:20:41;;;;;;;3.33;0.90;;;;;;;;;;4737296;30;20842;-83
2024/02/12 01:23:08;;;;;;;7.97;1.10;;;;;;;;;;4736931;30;20139;-83
2024/02/12 01:25:34;;;;;;;2.80;0.75;;;;;;;;;;4755617;30;20044;-83
2024/02/12 01:28:00;;;;;;;3.35;1.05;;;;;;;;;;4741848;30;20353;-83
2024/02/12 01:30:27;;;;;;;1.33;0.38;;;;;;;;;;4747728;30;20137;-83
2024/02/12 01:32:53;;;;;;;1.67;0.80;;;;;;;;;;4728039;30;20091;-83
2024/02/12 01:35:20;;;;;;;2.05;0.43;;;;;;;;;;4752079;30;20102;-83
2024/02/12 01:37:46;;;;;;;2.13;0.40;;;;;;;;;;4734956;30;20048;-83
2024/02/12 01:40:13;;;;;;;0.85;0.47;;;;;;;;;;4745930;30;20048;-83
2024/02/12 01:42:39;;;;;;;1.52;0.60;;;;;;;;;;4748548;30;20044;-83
2024/02/12 01:45:11;;;;;;;1.92;0.60;;;;;;;;;;4737743;30;20052;-83
2024/02/12 01:47:38;;;;;;;1.05;0.47;;;;;;;;;;4742345;30;20186;-83
2024/02/12 01:50:07;;;;;;;4.45;1.40;;;;;;;;;;4743334;30;20040;-83
2024/02/12 01:52:33;;;;;;;4.82;0.85;;;;;;;;;;4738961;30;20827;-83
2024/02/12 01:55:02;;;;;;;2.58;0.82;;;;;;;;;;4730898;30;20114;-83
2024/02/12 01:57:29;;;;;;;3.63;0.65;;;;;;;;;;4738429;30;20055;-83
2024/02/12 01:59:57;;;;;;;4.18;0.95;;;;;;;;;;4749364;30;20055;-83
2024/02/12 02:02:25;;;;;;;8.93;0.50;;;;;;;;;;4735029;30;20488;-84
2024/02/12 02:04:53;;;;;;;4.55;0.80;;;;;;;;;;4737150;30;20553;-83
2024/02/12 02:07:20;;;;;;;1.98;0.90;;;;;;;;;;4727237;30;20049;-83
2024/02/12 02:09:54;;;;;;;5.30;1.15;;;;;;;;;;4741138;30;20051;-83
2024/02/12 02:12:21;;;;;;;5.38;1.73;;;;;;;;;;4737215;30;20637;-83
2024/02/12 02:14:48;;;;;;;3.35;0.90;;;;;;;;;;4724350;30;20753;-84
2024/02/12 02:17:14;;;;;;;3.83;1.15;;;;;;;;;;4724886;30;20048;-83
2024/02/12 02:19:40;;;;;;;3.50;1.27;;;;;;;;;;4730882;30;20049;-83
2024/02/12 02:22:08;;;;;;;2.60;1.10;;;;;;;;;;4734918;30;20587;-83
2024/02/12 02:24:38;;;;;;;3.65;1.33;;;;;;;;;;4728521;30;20106;-83
2024/02/12 02:27:09;;;;;;;2.97;1.10;;;;;;;;;;4733865;30;20048;-83
2024/02/12 02:29:37;;;;;;;3.67;0.88;;;;;;;;;;4734590;30;20101;-83
2024/02/12 02:32:03;;;;;;;4.75;1.10;;;;;;;;;;4726221;30;20045;-83
2024/02/12 02:34:29;;;;;;;3.03;1.13;;;;;;;;;;4745095;30;20052;-83
2024/02/12 02:36:56;;;;;;;4.47;1.10;;;;;;;;;;4735843;30;20083;-83
2024/02/12 02:39:22;;;;;;;1.58;0.82;;;;;;;;;;4742721;30;20118;-83
2024/02/12 02:41:48;;;;;;;2.88;0.93;;;;;;;;;;4730412;30;20048;-83
2024/02/12 02:44:16;;;;;;;1.90;0.60;;;;;;;;;;4738645;30;20885;-83
2024/02/12 02:46:42;;;;;;;1.13;0.60;;;;;;;;;;4735356;30;20040;-83
2024/02/12 02:49:08;;;;;;;1.35;0.28;;;;;;;;;;4733667;30;20110;-83
2024/02/12 02:51:37;;;;;;;0.90;0.30;;;;;;;;;;4748003;30;20514;-83
2024/02/12 02:54:09;;;;;;;1.25;0.35;;;;;;;;;;4729985;30;20138;-83
2024/02/12 02:56:35;;;;;;;1.73;0.47;;;;;;;;;;4747394;30;20080;-84
2024/02/12 02:59:01;;;;;;;1.13;0.60;;;;;;;;;;4724973;30;20060;-83
2024/02/12 03:01:31;;;;;;;1.10;0.40;;;;;;;;;;4735229;30;20131;-83
2024/02/12 03:03:57;;;;;;;0.85;0.30;;;;;;;;;;4734606;30;20091;-83
2024/02/12 03:06:26;;;;;;;1.88;0.22;;;;;;;;;;4739339;30;20475;-83
2024/02/12 03:08:52;;;;;;;2.10;0.75;;;;;;;;;;4746421;30;20048;-83
2024/02/12 03:11:24;;;;;;;1.83;0.63;;;;;;;;;;4734485;30;20251;-83
2024/02/12 03:13:55;;;;;;;2.88;0.90;;;;;;;;;;4736247;30;20055;-83
2024/02/12 03:16:24;;;;;;;6.68;0.50;;;;;;;;;;4751593;30;20048;-83
2024/02/12 03:18:51;;;;;;;2.35;0.30;;;;;;;;;;4729926;30;20139;-83
2024/02/12 03:21:21;;;;;;;1.38;0.30;;;;;;;;;;4715894;30;20411;-83
2024/02/12 03:23:47;;;;;;;0.93;0.47;;;;;;;;;;4724320;30;20059;-83
2024/02/12 03:26:14;;;;;;;0.75;0.22;;;;;;;;;;4740823;30;20048;-83
2024/02/12 03:28:40;;;;;;;2.50;0.63;;;;;;;;;;4736963;30;20116;-83
2024/02/12 03:31:06;;;;;;;1.25;0.30;;;;;;;;;;4731368;30;20483;-83
2024/02/12 03:33:32;;;;;;;0.93;0.17;;;;;;;;;;4743210;30;20053;-83
2024/02/12 03:35:58;;;;;;;1.42;0.30;;;;;;;;;;4730754;30;20064;-83
2024/02/12 03:38:24;;;;;;;4.95;0.28;;;;;;;;;;4744258;30;20821;-83
2024/02/12 03:40:53;;;;;;;1.65;0.52;;;;;;;;;;4735459;30;20051;-82
2024/02/12 03:43:22;;;;;;;0.90;0.30;;;;;;;;;;4727951;30;20052;-83
2024/02/12 03:45:48;;;;;;;1.00;0.43;;;;;;;;;;4708685;30;20497;-83
2024/02/12 04:01:58;;;;;;;2.30;0.25;;;;;;;;;;4716940;30;20067;-83
2024/02/12 04:04:24;;;;;;;0.85;0.10;;;;;;;;;;4724978;30;20049;-83
2024/02/12 04:06:50;;;;;;;1.00;0.10;;;;;;;;;;4737688;30;20088;-82
2024/02/12 04:09:17;;;;;;;0.60;0.20;;;;;;;;;;4710487;30;20515;-83
2024/02/12 04:11:43;;;;;;;0.95;0.32;;;;;;;;;;4734992;30;20118;-83
2024/02/12 04:14:12;;;;;;;0.98;0.22;;;;;;;;;;4729971;30;20597;-83
2024/02/12 04:16:38;;;;;;;26.60;0.60;;;;;;;;;;4709608;30;20139;-83
2024/02/12 04:19:05;;;;;;;1.75;0.70;;;;;;;;;;4716685;30;20053;-82
2024/02/12 04:21:32;;;;;;;7.47;2.30;;;;;;;;;;4711990;30;20064;-83
2024/02/12 04:24:00;;;;;;;7.35;1.92;;;;;;;;;;4711746;30;20053;-83
2024/02/12 04:26:26;;;;;;;7.82;1.83;;;;;;;;;;4726900;30;20472;-83
2024/02/12 04:28:53;;;;;;;3.30;1.73;;;;;;;;;;4714773;30;20812;-83
2024/02/12 04:31:20;;;;;;;0.43;0.30;;;;;;;;;;4733621;30;20468;-83
2024/02/12 04:33:46;;;;;;;3.20;0.80;;;;;;;;;;4728198;30;20047;-83
2024/02/12 04:36:15;;;;;;;0.90;0.47;;;;;;;;;;4716523;30;20057;-83
2024/02/12 04:38:41;;;;;;;1.67;0.68;;;;;;;;;;4717897;30;20041;-83
2024/02/12 04:41:08;;;;;;;1.23;0.50;;;;;;;;;;4718749;30;20412;-83
2024/02/12 04:43:35;;;;;;;2.13;0.60;;;;;;;;;;4716710;30;20048;-83
2024/02/12 04:46:04;;;;;;;4.00;0.75;;;;;;;;;;4733887;30;20056;-83
2024/02/12 04:48:31;;;;;;;1.10;0.32;;;;;;;;;;4704821;30;20041;-82
2024/02/12 04:50:59;;;;;;;2.10;0.35;;;;;;;;;;4721371;30;20045;-83
2024/02/12 04:53:26;;;;;;;2.83;0.38;;;;;;;;;;4729373;30;20048;-83
2024/02/12 04:55:52;;;;;;;5.72;0.38;;;;;;;;;;4735030;30;20192;-83
2024/02/12 04:58:18;;;;;;;2.38;0.30;;;;;;;;;;4734018;30;20044;-83
2024/02/12 05:00:44;;;;;;;2.58;0.40;;;;;;;;;;4715363;30;20144;-83
2024/02/12 05:03:10;;;;;;;4.18;1.02;;;;;;;;;;4714721;30;20143;-83
2024/02/12 05:05:39;;;;;;;2.90;0.52;;;;;;;;;;4729966;30;20076;-83
2024/02/12 05:08:05;;;;;;;2.15;0.70;;;;;;;;;;4723937;30;20048;-83
2024/02/12 05:10:31;;;;;;;0.63;0.20;;;;;;;;;;4716274;30;20049;-83
2024/02/12 05:12:57;;;;;;;9.85;0.57;;;;;;;;;;4735876;30;20045;-83
2024/02/12 05:15:26;;;;;;;4.10;0.55;;;;;;;;;;4714621;30;20084;-83
2024/02/12 05:17:55;;;;;;;1.15;0.50;;;;;;;;;;4717532;30;20052;-83
2024/02/12 05:23:08;;;;;;;1.27;0.50;;;;;;;;;;4731241;30;22141;-83
2024/02/12 05:25:35;;;;;;;3.47;1.08;;;;;;;;;;4726711;30;20055;-83
2024/02/12 05:28:01;;;;;;;2.05;0.65;;;;;;;;;;4722616;30;20047;-83
2024/02/12 05:30:27;;;;;;;1.85;0.60;;;;;;;;;;4714303;30;20052;-83
2024/02/12 05:32:53;;;;;;;2.47;0.75;;;;;;;;;;4717454;30;20080;-83
2024/02/12 05:35:19;;;;;;;0.60;0.30;;;;;;;;;;4718899;30;20044;-83
2024/02/12 05:37:45;;;;;;;1.48;0.50;;;;;;;;;;4733817;30;20403;-83
2024/02/12 05:40:11;;;;;;;23.10;9.85;;;;;;;;;;4714872;30;20060;-83
2024/02/12 05:42:37;;;;;;;6.82;2.60;;;;;;;;;;4729349;30;20051;-83
2024/02/12 05:45:04;;;;;;;7.90;2.20;;;;;;;;;;4732824;30;20052;-83
2024/02/12 05:47:30;;;;;;;4.32;1.40;;;;;;;;;;4739968;30;20524;-83
2024/02/12 05:49:56;;;;;;;3.85;1.23;;;;;;;;;;4747934;30;20049;-83
2024/02/12 05:52:23;;;;;;;3.33;1.05;;;;;;;;;;4738651;30;20095;-83
2024/02/12 05:54:49;;;;;;;9.70;2.42;;;;;;;;;;4744396;30;20145;-83
2024/02/12 05:57:18;;;;;;;6.90;2.25;;;;;;;;;;4742994;30;20044;-83
2024/02/12 05:59:44;;;;;;;5.25;1.55;;;;;;;;;;4732270;30;20063;-83
2024/02/12 06:02:11;;;;;;;;;;;;;;;;;;4737654;30;20050;-83
2024/02/12 06:04:38;;;;;;;3.10;1.42;;;;;;;;;;4740769;30;20013;-81
2024/02/12 06:07:04;;;;;;;3.83;1.63;;;;;;;;;;4738003;30;20056;-83
2024/02/12 06:09:30;;;;;;;7.97;2.47;;;;;;;;;;4743683;30;20044;-83
2024/02/12 06:11:56;;;;;;;7.45;2.20;;;;;;;;;;4742994;30;20040;-83
2024/02/12 06:14:22;;;;;;;;;;;;;;;;;;4754163;30;20044;-83
2024/02/12 06:16:49;;;;;;;4.68;1.23;;;;;;;;;;4728449;30;19929;-82
2024/02/12 06:19:26;;;;;;;5.28;1.73;;;;;;;;;;4739483;30;20083;-81
2024/02/12 06:21:52;;;;;;;8.07;2.15;;;;;;;;;;4735314;30;20072;-81
2024/02/12 06:24:18;;;;;;;8.82;2.38;;;;;;;;;;4751026;30;20045;-82
2024/02/12 06:26:44;;;;;;;4.70;1.45;;;;;;;;;;4742596;30;20060;-81
2024/02/12 06:29:14;;;;;;;7.38;1.63;;;;;;;;;;4744055;30;20052;-83
2024/02/12 06:31:43;;;;;;;9.65;2.33;;;;;;;;;;4744797;30;20127;-83
2024/02/12 06:34:09;;;;;;;9.40;2.22;;;;;;;;;;4743190;30;20086;-83
2024/02/12 06:36:35;;;;;;;8.63;3.90;;;;;;;;;;4739142;30;20510;-82
2024/02/12 06:39:05;;;;;;;9.80;3.10;;;;;;;;;;4748984;30;20447;-83
2024/02/12 06:41:32;;;;;;;;;;;;;;;;;;4742278;30;20052;-83
2024/02/12 06:43:58;;;;;;;;;;;;;;;;;;4729622;30;19977;-82
2024/02/12 06:46:25;;;;;;;;;;;;;;;;;;4730010;30;19961;-81
2024/02/12 06:48:51;;;;;;;4.85;1.98;;;;;;;;;;4716651;30;19919;-81
2024/02/12 06:51:17;;;;;;;7.40;1.58;;;;;;;;;;4724028;30;20047;-81
2024/02/12 06:53:44;;;;;;;;;;;;;;;;;;4726045;30;20040;-85
2024/02/12 06:56:10;;;;;;;3.88;1.50;;;;;;;;;;4730901;30;19925;-81
2024/02/12 06:58:36;;;;;;;3.45;1.40;;;;;;;;;;4731427;30;20812;-84
2024/02/12 07:01:04;;;;;;;5.10;1.58;;;;;;;;;;4710556;30;20137;-83
2024/02/12 07:03:32;;;;;;;9.07;1.92;;;;;;;;;;4730489;30;20435;-83
2024/02/12 07:05:58;;;;;;;5.55;2.00;;;;;;;;;;4721214;30;20906;-82
2024/02/12 07:08:24;;;;;;;4.90;1.75;;;;;;;;;;4717230;30;20418;-82
2024/02/12 07:10:52;;;;;;;3.20;1.17;;;;;;;;;;4724870;30;20431;-82
2024/02/12 07:13:18;;;;;;;3.10;0.90;;;;;;;;;;4726554;30;20041;-82
2024/02/12 07:15:44;;;;;;;;;;;;;;;;;;4730437;30;20409;-81
2024/02/12 07:18:10;;;;;;;1.65;0.70;;;;;;;;;;4734167;30;19915;-81
2024/02/12 07:20:37;;;;;;;3.75;1.20;;;;;;;;;;4729380;30;21058;-83
2024/02/12 07:23:03;;;;;;;5.15;1.48;;;;;;;;;;4734703;30;20049;-83
2024/02/12 07:25:29;;;;;;;2.78;1.33;;;;;;;;;;4732467;30;20069;-83
2024/02/12 07:27:55;;;;;;;2.88;0.77;;;;;;;;;;4733541;30;20435;-83
2024/02/12 07:30:21;;;;;;;4.78;1.35;;;;;;;;;;4722435;30;20051;-81
2024/02/12 07:32:47;;;;;;;3.85;0.68;;;;;;;;;;4723003;30;20059;-81
2024/02/12 07:35:13;;;;;;;1.25;0.60;;;;;;;;;;4717456;30;20051;-84
2024/02/12 07:37:41;;;;;;;3.85;1.17;;;;;;;;;;4715987;30;20884;-82
2024/02/12 07:40:10;;;;;;;7.72;1.80;;;;;;;;;;4719947;30;20417;-84
2024/02/12 07:42:36;;;;;;;;;;;;;;;;;;4731451;30;20037;-83
2024/02/12 07:45:02;;;;;;;5.50;1.40;;;;;;;;;;4753345;30;19924;-83
2024/02/12 07:47:28;;;;;;;2.25;1.15;;;;;;;;;;4743479;30;20051;-84
2024/02/12 07:49:54;;;;;;;4.05;1.00;;;;;;;;;;4730806;30;20560;-83
2024/02/12 07:52:20;;;;;;;;;;;;;;;;;;4745564;30;20052;-84
2024/02/12 07:54:46;;;;;;;10.20;2.10;;;;;;;;;;4733823;30;20007;-84
2024/02/12 07:57:12;;;;;;;;;;;;;;;;;;4728384;30;20048;-84
2024/02/12 07:59:38;;;;;;;6.43;2.22;;;;;;;;;;4732942;30;19922;-84
2024/02/12 08:02:06;;;;;;;6.90;2.40;;;;;;;;;;4734354;30;20436;-84
2024/02/12 08:04:32;;;;;;;8.82;2.85;;;;;;;;;;4761628;30;20970;-84
2024/02/12 08:06:58;;;;;;;;;;;;;;;;;;4753958;30;20049;-84
2024/02/12 08:09:24;;;;;;;3.67;1.38;;;;;;;;;;4716832;30;20765;-84
2024/02/12 08:11:50;;;;;;;3.40;1.30;;;;;;;;;;4732183;30;20049;-84
2024/02/12 08:14:16;;;;;;;3.20;1.52;;;;;;;;;;4738262;30;20050;-84
2024/02/12 08:16:46;;;;;;;8.40;2.13;;;;;;;;;;4733821;30;20094;-84
2024/02/12 08:19:12;;;;;;;4.65;1.48;;;;;;;;;;4744362;30;20139;-84
2024/02/12 08:21:38;;;;;;;4.18;2.50;;;;;;;;;;4756584;30;20047;-84
2024/02/12 08:24:10;;;;;;;8.88;1.45;;;;;;;;;;4739436;30;20099;-84
2024/02/12 08:26:37;;;;;;;3.35;1.30;;;;;;;;;;4735538;30;20076;-84
2024/02/12 08:29:03;;;;;;;4.15;1.40;;;;;;;;;;4738292;30;20064;-84
2024/02/12 08:31:29;;;;;;;3.65;1.30;;;;;;;;;;4758750;30;20158;-84
2024/02/12 08:33:57;;;;;;;1.90;0.95;;;;;;;;;;4749376;30;20713;-83
2024/02/12 08:36:24;;;;;;;3.30;1.20;;;;;;;;;;4745143;30;20040;-84
2024/02/12 08:38:50;;;;;;;3.50;1.52;;;;;;;;;;4749776;30;20060;-83
2024/02/12 08:41:22;;;;;;;2.53;1.02;;;;;;;;;;4747047;30;20397;-83
2024/02/12 08:43:49;;;;;;;3.83;1.30;;;;;;;;;;4722815;30;20516;-83
2024/02/12 08:46:15;;;;;;;3.70;1.20;;;;;;;;;;4712851;30;20488;-84
2024/02/12 08:48:45;;;;;;;5.63;2.40;;;;;;;;;;4729908;30;20146;-85
2024/02/12 08:57:28;;;;;;;5.45;2.00;;;;;;;;;;4673325;30;20521;-85
2024/02/12 08:59:58;;;;;;;8.45;2.35;;;;;;;;;;4723059;30;20779;-84
2024/02/12 09:02:25;;;;;;;7.10;1.75;;;;;;;;;;4719190;30;20086;-83
2024/02/12 09:04:51;;;;;;;6.63;1.65;;;;;;;;;;4719394;30;20112;-83
2024/02/12 09:07:17;;;;;;;6.38;1.27;;;;;;;;;;4732192;30;20123;-84
2024/02/12 09:09:45;;;;;;;7.00;1.77;;;;;;;;;;4725939;30;20040;-83
2024/02/12 09:12:12;;;;;;;3.92;1.10;;;;;;;;;;4727120;30;20485;-83
2024/02/12 09:14:38;;;;;;;1.80;0.75;;;;;;;;;;4714523;30;20087;-81
2024/02/12 09:17:04;;;;;;;2.33;0.77;;;;;;;;;;4730489;30;20873;-80
2024/02/12 09:19:31;;;;;;;2.60;1.00;;;;;;;;;;4728653;30;20052;-81
2024/02/12 09:21:57;;;;;;;5.82;1.83;;;;;;;;;;4730819;30;20075;-81
2024/02/12 09:24:23;;;;;;;3.65;1.15;;;;;;;;;;4716867;30;20040;-79
2024/02/12 09:26:49;;;;;;;7.72;1.20;;;;;;;;;;4729006;30;20056;-81
2024/02/12 09:29:16;;;;;;;6.47;1.60;;;;;;;;;;4733690;30;20111;-83
2024/02/12 09:31:42;;;;;;;4.50;1.85;;;;;;;;;;4734827;30;20041;-85
2024/02/12 09:34:08;;;;;;;4.55;1.75;;;;;;;;;;4714810;30;20508;-83
2024/02/12 09:36:36;;;;;;;8.48;2.20;;;;;;;;;;4713761;30;20055;-84
2024/02/12 09:39:04;;;;;;;2.22;1.10;;;;;;;;;;4730358;30;20693;-84
2024/02/12 09:41:31;;;;;;;4.65;0.80;;;;;;;;;;4728998;30;20080;-84
2024/02/12 09:43:59;;;;;;;1.45;0.70;;;;;;;;;;4722783;30;20099;-82
2024/02/12 09:46:25;;;;;;;3.50;0.82;;;;;;;;;;4717768;30;20136;-83
2024/02/12 09:48:52;;;;;;;1.08;0.40;;;;;;;;;;4711047;30;20073;-83
2024/02/12 09:51:23;;;;;;;2.40;0.68;;;;;;;;;;4731737;30;20056;-84
2024/02/12 09:53:51;;;;;;;2.25;1.10;;;;;;;;;;4729961;30;20091;-82
2024/02/12 09:56:19;;;;;;;2.90;1.88;;;;;;;;;;4722294;30;20135;-82
2024/02/12 09:58:46;;;;;;;4.88;1.08;;;;;;;;;;4731442;30;20044;-81
2024/02/12 10:01:12;;;;;;;5.25;0.90;;;;;;;;;;4729047;30;20887;-81
2024/02/12 10:03:39;;;;;;;6.72;1.55;;;;;;;;;;4728087;30;20152;-83
2024/02/12 10:06:05;;;;;;;10.90;1.13;;;;;;;;;;4716231;30;20055;-83
2024/02/12 10:08:31;;;;;;;3.85;1.40;;;;;;;;;;4714088;30;20068;-83
2024/02/12 10:10:57;;;;;;;3.65;0.95;;;;;;;;;;4714571;30;20745;-82
2024/02/12 10:13:23;;;;;;;2.75;0.63;;;;;;;;;;4711727;30;20726;-83
2024/02/12 10:15:50;;;;;;;6.75;0.60;;;;;;;;;;4712895;30;20559;-83
2024/02/12 10:18:16;;;;;;;2.22;0.47;;;;;;;;;;4731582;30;20060;-83
2024/02/12 10:20:43;;;;;;;1.45;0.77;;;;;;;;;;4723943;30;20129;-82
2024/02/12 10:23:21;;;;;;;1.58;0.40;;;;;;;;;;4731968;30;20943;-83
2024/02/12 10:25:50;;;;;;;1.50;0.47;;;;;;;;;;4720023;30;20055;-84
2024/02/12 10:28:17;;;;;;;2.97;0.75;;;;;;;;;;4718726;30;20055;-84
2024/02/12 10:30:44;;;;;;;5.90;0.50;;;;;;;;;;4712195;30;20044;-82
2024/02/12 10:33:10;;;;;;;4.43;1.02;;;;;;;;;;4727879;30;20049;-86
2024/02/12 10:35:41;;;;;;;1.73;0.82;;;;;;;;;;4724500;30;20064;-85
2024/02/12 10:38:07;;;;;;;0.73;0.20;;;;;;;;;;4705151;30;20399;-85
2024/02/12 10:40:35;;;;;;;2.05;0.47;;;;;;;;;;4725730;30;20045;-85
2024/02/12 10:43:05;;;;;;;4.15;1.30;;;;;;;;;;4732630;30;20059;-85
2024/02/12 10:45:31;;;;;;;3.03;0.52;;;;;;;;;;4743637;30;20052;-85
2024/02/12 10:47:57;;;;;;;1.10;0.40;;;;;;;;;;4721144;30;20044;-85
2024/02/12 10:50:24;;;;;;;1.50;0.63;;;;;;;;;;4739806;30;20139;-85
2024/02/12 10:52:52;;;;;;;2.92;0.70;;;;;;;;;;4750095;30;20052;-85
2024/02/12 10:55:19;;;;;;;1.85;0.60;;;;;;;;;;4740302;30;20040;-85
2024/02/12 10:57:46;;;;;;;2.13;0.55;;;;;;;;;;4738671;30;20414;-85
2024/02/12 11:00:27;;;;;;;0.47;0.20;;;;;;;;;;4754477;30;20040;-85
2024/02/12 11:02:59;;;;;;;3.05;0.43;;;;;;;;;;4721305;30;20131;-84
2024/02/12 11:05:25;;;;;;;1.58;0.52;;;;;;;;;;4732042;30;20132;-84
2024/02/12 11:08:04;;;;;;;16.15;0.70;;;;;;;;;;4742107;30;20065;-85
2024/02/12 11:10:34;;;;;;;2.78;0.98;;;;;;;;;;4731811;30;20127;-84
2024/02/12 11:13:04;;;;;;;2.42;0.50;;;;;;;;;;4746586;30;20052;-84
2024/02/12 11:15:52;;;;;;;1.63;0.50;;;;;;;;;;4723829;30;20044;-86
2024/02/12 11:18:19;;;;;;;1.85;0.65;;;;;;;;;;4733670;30;20044;-83
2024/02/12 11:20:49;;;;;;;3.38;0.47;;;;;;;;;;4740130;30;20044;-85
2024/02/12 11:23:31;;;;;;;2.20;0.50;;;;;;;;;;4742444;30;20056;-85
2024/02/12 11:25:59;;;;;;;1.85;0.50;;;;;;;;;;4733274;30;20040;-81
2024/02/12 11:28:29;;;;;;;1.20;0.47;;;;;;;;;;4736974;30;20049;-83
2024/02/12 11:30:56;;;;;;;3.05;0.52;;;;;;;;;;4744888;30;20658;-82
2024/02/12 11:33:25;;;;;;;1.88;0.43;;;;;;;;;;4728259;30;20102;-82
2024/02/12 11:35:51;;;;;;;1.23;0.30;;;;;;;;;;4739894;30;20492;-82
2024/02/12 11:38:17;;;;;;;2.42;0.70;;;;;;;;;;4731740;30;20063;-83
2024/02/12 11:40:44;;;;;;;2.20;0.40;;;;;;;;;;4745663;30;20045;-82
2024/02/12 11:43:10;;;;;;;2.25;0.40;;;;;;;;;;4732920;30;20112;-82
2024/02/12 11:45:36;;;;;;;4.60;0.70;;;;;;;;;;4716160;30;20045;-84
2024/02/12 11:48:10;;;;;;;1.15;0.40;;;;;;;;;;4717966;30;20108;-82
2024/02/12 11:50:37;;;;;;;0.80;0.32;;;;;;;;;;4731947;30;20036;-82
2024/02/12 11:53:05;;;;;;;0.47;0.10;;;;;;;;;;4718933;30;20098;-85
2024/02/12 11:55:31;;;;;;;4.43;0.43;;;;;;;;;;4720436;30;20052;-81
2024/02/12 11:57:58;;;;;;;1.13;0.52;;;;;;;;;;4728247;30;20064;-81
2024/02/12 12:00:24;;;;;;;0.20;0.10;;;;;;;;;;4735204;30;20396;-82
2024/02/12 12:02:51;;;;;;;1.13;0.20;;;;;;;;;;4745257;30;20056;-82
2024/02/12 12:05:22;;;;;;;1.75;0.20;;;;;;;;;;4734741;30;20044;-83
2024/02/12 12:07:48;;;;;;;1.08;0.50;;;;;;;;;;4720439;30;20414;-83
2024/02/12 12:10:20;;;;;;;1.23;0.30;;;;;;;;;;4735261;30;20051;-83
2024/02/12 12:12:47;;;;;;;1.55;0.40;;;;;;;;;;4720647;30;20103;-83
2024/02/12 12:15:13;;;;;;;3.08;0.50;;;;;;;;;;4722468;30;20067;-84
2024/02/12 12:17:40;;;;;;;1.55;0.45;;;;;;;;;;4719299;30;20560;-82
2024/02/12 12:20:12;;;;;;;0.82;0.25;;;;;;;;;;4720222;30;20507;-84
2024/02/12 12:27:42;;;;;;;0.47;0.20;;;;;;;;;;4747854;30;20757;-82
2024/02/12 12:30:16;;;;;;;1.27;0.22;;;;;;;;;;4737893;30;20049;-86
2024/02/12 12:32:43;;;;;;;2.95;0.10;;;;;;;;;;4734576;30;20465;-84
2024/02/12 12:35:09;;;;;;;0.30;0.10;;;;;;;;;;4730454;30;20068;-84
2024/02/12 12:37:38;;;;;;;0.22;0.03;;;;;;;;;;4750638;30;20048;-84
2024/02/12 12:40:10;;;;;;;0.93;0.20;;;;;;;;;;4737084;30;20048;-86
2024/02/12 12:45:55;;;;;;;1.60;0.22;;;;;;;;;;4696821;30;20082;-86
2024/02/12 12:48:24;;;;;;;0.85;0.15;;;;;;;;;;4701979;30;20049;-86
2024/02/12 12:50:50;;;;;;;1.02;0.20;;;;;;;;;;4722807;30;20547;-86
2024/02/12 12:53:16;;;;;;;0.30;0.10;;;;;;;;;;4738854;30;20140;-87
2024/02/12 12:55:49;;;;;;;0.45;0.10;;;;;;;;;;4736850;30;20044;-86
2024/02/12 12:58:18;;;;;;;0.65;0.20;;;;;;;;;;4731155;30;20116;-86
2024/02/12 13:00:48;;;;;;;0.70;0.45;;;;;;;;;;4718500;30;20049;-86
2024/02/12 13:03:15;;;;;;;1.67;0.30;;;;;;;;;;4731459;30;20071;-86
2024/02/12 13:05:44;;;;;;;0.95;0.43;;;;;;;;;;4734201;30;20047;-86
2024/02/12 13:08:13;;;;;;;0.45;0.10;;;;;;;;;;4738269;30;20047;-83
2024/02/12 13:13:15;;;;;;;0.93;0.32;;;;;;;;;;4749466;30;20139;-86
2024/02/12 13:15:41;;;;;;;3.05;0.20;;;;;;;;;;4726191;30;20412;-85
2024/02/12 13:18:12;;;;;;;0.73;0.08;;;;;;;;;;4747230;30;20197;-84
2024/02/12 13:20:42;;;;;;;1.17;0.20;;;;;;;;;;4735534;30;20045;-85
2024/02/12 13:23:11;;;;;;;0.63;0.22;;;;;;;;;;4739579;30;20053;-85
2024/02/12 13:25:37;;;;;;;1.27;0.10;;;;;;;;;;4727715;30;20047;-85
2024/02/12 13:28:09;;;;;;;0.20;0.13;;;;;;;;;;4748642;30;20056;-86
2024/02/12 13:30:36;;;;;;;1.30;0.38;;;;;;;;;;4732873;30;20041;-86
2024/02/12 13:35:49;;;;;;;0.40;0.10;;;;;;;;;;4747555;30;20494;-87
2024/02/12 13:38:20;;;;;;;0.35;0.20;;;;;;;;;;4738957;24;20406;-87
2024/02/12 13:40:47;;;;;;;1.70;0.20;;;;;;;;;;4732312;30;20048;-86
2024/02/12 13:43:18;;;;;;;0.93;0.32;;;;;;;;;;4730775;30;20129;-86
2024/02/12 13:45:44;;;;;;;4.15;0.20;;;;;;;;;;4730430;30;20044;-85
2024/02/12 13:48:14;;;;;;;0.32;0.17;;;;;;;;;;4749702;30;20115;-87
2024/02/12 13:50:43;;;;;;;0.22;0.10;;;;;;;;;;4735048;30;20410;-86
2024/02/12 13:53:09;;;;;;;1.02;0.30;;;;;;;;;;4750660;30;20127;-86
2024/02/12 13:55:37;;;;;;;0.13;0.05;;;;;;;;;;4751175;30;20051;-87
2024/02/12 13:58:05;;;;;;;1.05;0.20;;;;;;;;;;4734926;30;20186;-86
2024/02/12 14:00:34;;;;;;;0.30;0.20;;;;;;;;;;4731677;30;20113;-86
2024/02/12 14:03:02;;;;;;;0.22;0.10;;;;;;;;;;4732021;30;20053;-86
2024/02/12 14:05:31;;;;;;;2.58;0.30;;;;;;;;;;4748542;30;20071;-86
2024/02/12 14:07:57;;;;;;;0.10;0.10;;;;;;;;;;4732734;30;20413;-86
2024/02/12 14:10:31;;;;;;;0.68;0.10;;;;;;;;;;4743478;30;20554;-86
2024/02/12 14:13:01;;;;;;;3.60;1.75;;;;;;;;;;4734446;30;20087;-87
2024/02/12 14:15:30;;;;;;;1.45;0.65;;;;;;;;;;4736637;30;20072;-85
2024/02/12 14:18:02;;;;;;;1.55;0.40;;;;;;;;;;4749874;30;20048;-85
2024/02/12 14:20:29;;;;;;;0.52;0.10;;;;;;;;;;4717065;30;20060;-86
2024/02/12 14:23:03;;;;;;;1.80;0.20;;;;;;;;;;4744943;30;20106;-86
2024/02/12 14:25:30;;;;;;;2.60;0.25;;;;;;;;;;4717499;30;20057;-86
2024/02/12 14:31:17;;;;;;;0.50;0.10;;;;;;;;;;5536710;24;20126;-87
2024/02/12 14:37:03;;;;;;;0.17;0.10;;;;;;;;;;4707411;30;20040;-87
2024/02/12 14:39:29;;;;;;;1.55;0.38;;;;;;;;;;4711352;30;20045;-86
2024/02/12 14:42:06;;;;;;;0.85;0.20;;;;;;;;;;4711225;30;20045;-87
2024/02/12 14:44:39;;;;;;;0.57;0.13;;;;;;;;;;4692842;30;20134;-86
2024/02/12 14:47:19;;;;;;;1.00;0.20;;;;;;;;;;4693273;30;20055;-86
2024/02/12 14:50:18;;;;;;;2.17;0.20;;;;;;;;;;4685399;30;20052;-85
2024/02/12 14:52:45;;;;;;;1.38;0.38;;;;;;;;;;4675426;30;20050;-84
2024/02/12 14:55:11;;;;;;;1.35;0.10;;;;;;;;;;4681344;30;20042;-82
2024/02/12 14:57:49;;;;;;;3.38;0.47;;;;;;;;;;4688177;30;20053;-87
2024/02/12 15:00:18;;;;;;;0.88;0.30;;;;;;;;;;4670033;30;20139;-82
2024/02/12 15:02:54;;;;;;;1.13;0.20;;;;;;;;;;4690701;30;20081;-81
2024/02/12 15:05:21;;;;;;;1.90;0.35;;;;;;;;;;4686126;30;20128;-82
2024/02/12 15:07:48;;;;;;;2.00;0.30;;;;;;;;;;4693829;30;20501;-82
2024/02/12 15:10:20;;;;;;;0.40;0.10;;;;;;;;;;4691116;30;20520;-82
2024/02/12 15:12:50;;;;;;;0.50;0.10;;;;;;;;;;4731892;30;20054;-82
2024/02/12 15:15:24;;;;;;;5.07;0.32;;;;;;;;;;4723046;30;20108;-82
2024/02/12 15:17:52;;;;;;;0.57;0.20;;;;;;;;;;4763088;30;20168;-81
2024/02/12 15:20:22;;;;;;;0.30;0.20;;;;;;;;;;4766844;30;20122;-81
2024/02/12 15:22:50;;;;;;;5.05;0.28;;;;;;;;;;4766579;30;20126;-81
2024/02/12 15:25:20;;;;;;;3.13;0.28;;;;;;;;;;4765122;30;20127;-81
2024/02/12 15:27:47;;;;;;;0.50;0.17;;;;;;;;;;4742163;30;20055;-82
2024/02/12 15:30:14;;;;;;;1.38;0.28;;;;;;;;;;4752614;30;20089;-81
2024/02/12 15:32:40;;;;;;;0.80;0.25;;;;;;;;;;4764153;30;20046;-81